sensor_id;sensor_type;location;lat;lon;timestamp;pressure;altitude;pressure_sealevel;temperature;humidity
28354;BME280;15603;50.878;8.036;2024-01-10T00:00:40;140451.47;;;-12.04;47.47
28354;BME280;15603;50.878;8.036;2024-01-10T00:03:07;140431.16;;;-12.13;48.51
28354;BME280;15603;50.878;8.036;2024-01-10T00:05:34;140425.19;;;-12.16;48.37
28354;BME280;15603;50.878;8.036;2024-01-10T00:08:01;140421.63;;;-12.17;48.18
28354;BME280;15603;50.878;8.036;2024-01-10T00:10:28;140396.53;;;-12.28;48.64
28354;BME280;15603;50.878;8.036;2024-01-10T00:12:56;140379.88;;;-12.35;50.40
28354;BME280;15603;50.878;8.036;2024-01-10T00:15:23;140358.38;;;-12.45;51.86
28354;BME280;15603;50.878;8.036;2024-01-10T00:17:50;140341.66;;;-12.52;52.13
28354;BME280;15603;50.878;8.036;2024-01-10T00:20:17;140329.72;;;-12.57;51.66
28354;BME280;15603;50.878;8.036;2024-01-10T00:22:45;140315.41;;;-12.63;53.49
28354;BME280;15603;50.878;8.036;2024-01-10T00:25:12;140309.47;;;-12.66;53.05
28354;BME280;15603;50.878;8.036;2024-01-10T00:27:39;140329.72;;;-12.57;53.29
28354;BME280;15603;50.878;8.036;2024-01-10T00:30:07;140310.66;;;-12.65;53.17
28354;BME280;15603;50.878;8.036;2024-01-10T00:32:34;140305.88;;;-12.67;53.33
28354;BME280;15603;50.878;8.036;2024-01-10T00:35:01;140305.88;;;-12.67;53.71
28354;BME280;15603;50.878;8.036;2024-01-10T00:37:29;140298.72;;;-12.70;54.31
28354;BME280;15603;50.878;8.036;2024-01-10T00:39:57;140308.28;;;-12.66;53.45
28354;BME280;15603;50.878;8.036;2024-01-10T00:42:24;140339.25;;;-12.53;51.70
28354;BME280;15603;50.878;8.036;2024-01-10T00:44:51;140346.44;;;-12.50;50.10
28354;BME280;15603;50.878;8.036;2024-01-10T00:47:18;140384.63;;;-12.33;49.98
28354;BME280;15603;50.878;8.036;2024-01-10T00:49:45;140420.44;;;-12.18;49.16
28354;BME280;15603;50.878;8.036;2024-01-10T00:52:12;140441.88;;;-12.09;48.48
28354;BME280;15603;50.878;8.036;2024-01-10T00:54:40;140276.06;;;-12.80;49.41
28354;BME280;15603;50.878;8.036;2024-01-10T00:57:07;140406.06;;;-12.24;49.86
28354;BME280;15603;50.878;8.036;2024-01-10T00:59:34;140385.81;;;-12.33;50.79
28354;BME280;15603;50.878;8.036;2024-01-10T01:02:01;140377.47;;;-12.36;50.78
28354;BME280;15603;50.878;8.036;2024-01-10T01:04:28;140375.06;;;-12.37;50.04
28354;BME280;15603;50.878;8.036;2024-01-10T01:06:55;140366.75;;;-12.41;49.94
28354;BME280;15603;50.878;8.036;2024-01-10T01:09:22;140379.88;;;-12.35;50.00
28354;BME280;15603;50.878;8.036;2024-01-10T01:11:49;140395.34;;;-12.29;48.24
28354;BME280;15603;50.878;8.036;2024-01-10T01:14:17;140387.00;;;-12.32;49.69
28354;BME280;15603;50.878;8.036;2024-01-10T01:16:44;140441.88;;;-12.09;48.00
28354;BME280;15603;50.878;8.036;2024-01-10T01:19:11;140425.19;;;-12.16;48.56
28354;BME280;15603;50.878;8.036;2024-01-10T01:21:38;140429.97;;;-12.14;48.16
28354;BME280;15603;50.878;8.036;2024-01-10T01:24:05;140403.72;;;-12.25;48.85
28354;BME280;15603;50.878;8.036;2024-01-10T01:26:32;140387.00;;;-12.32;49.92
28354;BME280;15603;50.878;8.036;2024-01-10T01:28:59;140398.94;;;-12.27;49.72
28354;BME280;15603;50.878;8.036;2024-01-10T01:31:26;140392.94;;;-12.30;48.69
28354;BME280;15603;50.878;8.036;2024-01-10T01:33:53;140377.47;;;-12.36;50.85
28354;BME280;15603;50.878;8.036;2024-01-10T01:36:21;140301.13;;;-12.69;51.28
28354;BME280;15603;50.878;8.036;2024-01-10T01:38:48;140298.72;;;-12.70;51.54
28354;BME280;15603;50.878;8.036;2024-01-10T01:41:15;140333.31;;;-12.55;52.27
28354;BME280;15603;50.878;8.036;2024-01-10T01:43:43;140315.41;;;-12.63;53.56
28354;BME280;15603;50.878;8.036;2024-01-10T01:46:10;140298.72;;;-12.70;52.97
28354;BME280;15603;50.878;8.036;2024-01-10T01:48:37;140196.16;;;-13.14;53.18
28354;BME280;15603;50.878;8.036;2024-01-10T01:51:06;140332.13;;;-12.56;52.18
28354;BME280;15603;50.878;8.036;2024-01-10T01:53:37;140247.44;;;-12.92;50.32
28354;BME280;15603;50.878;8.036;2024-01-10T01:56:06;140361.97;;;-12.43;51.05
28354;BME280;15603;50.878;8.036;2024-01-10T01:58:36;140348.84;;;-12.49;53.51
28354;BME280;15603;50.878;8.036;2024-01-10T02:01:04;140301.13;;;-12.69;53.91
28354;BME280;15603;50.878;8.036;2024-01-10T02:03:34;140285.59;;;-12.76;54.32
28354;BME280;15603;50.878;8.036;2024-01-10T02:06:02;140208.09;;;-13.09;54.27
28354;BME280;15603;50.878;8.036;2024-01-10T02:08:33;140283.22;;;-12.77;55.13
28354;BME280;15603;50.878;8.036;2024-01-10T02:11:01;140289.19;;;-12.74;55.37
28354;BME280;15603;50.878;8.036;2024-01-10T02:13:29;140289.19;;;-12.74;54.41
28354;BME280;15603;50.878;8.036;2024-01-10T02:15:56;140316.59;;;-12.62;53.38
28354;BME280;15603;50.878;8.036;2024-01-10T02:18:23;140348.84;;;-12.49;53.27
28354;BME280;15603;50.878;8.036;2024-01-10T02:20:50;140377.47;;;-12.36;54.04
28354;BME280;15603;50.878;8.036;2024-01-10T02:23:19;140339.25;;;-12.53;55.71
28354;BME280;15603;50.878;8.036;2024-01-10T02:25:47;140342.84;;;-12.51;55.13
28354;BME280;15603;50.878;8.036;2024-01-10T02:28:14;140202.16;;;-13.12;55.75
28354;BME280;15603;50.878;8.036;2024-01-10T02:30:41;140280.81;;;-12.78;57.25
28354;BME280;15603;50.878;8.036;2024-01-10T02:33:09;140258.16;;;-12.88;58.34
28354;BME280;15603;50.878;8.036;2024-01-10T02:35:36;140258.16;;;-12.88;57.46
28354;BME280;15603;50.878;8.036;2024-01-10T02:38:03;140274.88;;;-12.80;55.58
28354;BME280;15603;50.878;8.036;2024-01-10T02:40:31;140304.72;;;-12.68;55.74
28354;BME280;15603;50.878;8.036;2024-01-10T02:42:58;140278.47;;;-12.79;56.83
28354;BME280;15603;50.878;8.036;2024-01-10T02:45:25;140257.00;;;-12.88;58.73
28354;BME280;15603;50.878;8.036;2024-01-10T02:47:52;140262.94;;;-12.86;58.45
28354;BME280;15603;50.878;8.036;2024-01-10T02:50:20;140260.56;;;-12.87;57.46
28354;BME280;15603;50.878;8.036;2024-01-10T02:52:47;140239.09;;;-12.96;59.29
28354;BME280;15603;50.878;8.036;2024-01-10T02:55:14;140199.75;;;-13.13;61.36
28354;BME280;15603;50.878;8.036;2024-01-10T02:57:41;140210.50;;;-13.08;61.25
28354;BME280;15603;50.878;8.036;2024-01-10T03:00:09;140208.09;;;-13.09;61.42
28354;BME280;15603;50.878;8.036;2024-01-10T03:02:36;140193.78;;;-13.15;61.76
28354;BME280;15603;50.878;8.036;2024-01-10T03:05:04;140183.09;;;-13.20;61.43
28354;BME280;15603;50.878;8.036;2024-01-10T03:07:31;140177.09;;;-13.23;62.16
28354;BME280;15603;50.878;8.036;2024-01-10T03:09:58;140174.72;;;-13.24;63.24
28354;BME280;15603;50.878;8.036;2024-01-10T03:12:25;140153.31;;;-13.33;64.27
28354;BME280;15603;50.878;8.036;2024-01-10T03:14:53;140146.13;;;-13.36;63.98
28354;BME280;15603;50.878;8.036;2024-01-10T03:17:20;140141.38;;;-13.38;63.74
28354;BME280;15603;50.878;8.036;2024-01-10T03:19:47;140127.09;;;-13.44;65.14
28354;BME280;15603;50.878;8.036;2024-01-10T03:22:14;140113.97;;;-13.50;65.41
28354;BME280;15603;50.878;8.036;2024-01-10T03:24:41;140108.03;;;-13.52;65.67
28354;BME280;15603;50.878;8.036;2024-01-10T03:27:09;140110.38;;;-13.51;65.64
28354;BME280;15603;50.878;8.036;2024-01-10T03:29:36;140086.56;;;-13.61;65.75
28354;BME280;15603;50.878;8.036;2024-01-10T03:32:03;140108.03;;;-13.52;65.98
28354;BME280;15603;50.878;8.036;2024-01-10T03:34:30;140084.16;;;-13.63;66.54
28354;BME280;15603;50.878;8.036;2024-01-10T03:36:57;140072.28;;;-13.68;68.32
28354;BME280;15603;50.878;8.036;2024-01-10T03:39:25;140069.88;;;-13.69;67.30
28354;BME280;15603;50.878;8.036;2024-01-10T03:41:52;140093.72;;;-13.58;66.85
28354;BME280;15603;50.878;8.036;2024-01-10T03:44:19;140090.16;;;-13.60;66.95
28354;BME280;15603;50.878;8.036;2024-01-10T03:46:46;140091.31;;;-13.59;67.94
28354;BME280;15603;50.878;8.036;2024-01-10T03:49:13;140096.09;;;-13.57;66.85
28354;BME280;15603;50.878;8.036;2024-01-10T03:51:40;140096.09;;;-13.57;68.16
28354;BME280;15603;50.878;8.036;2024-01-10T03:54:09;140087.75;;;-13.61;68.34
28354;BME280;15603;50.878;8.036;2024-01-10T03:56:36;140098.50;;;-13.56;67.00
28354;BME280;15603;50.878;8.036;2024-01-10T03:59:03;140069.88;;;-13.69;69.18
28354;BME280;15603;50.878;8.036;2024-01-10T04:01:30;140060.34;;;-13.73;70.38
28354;BME280;15603;50.878;8.036;2024-01-10T04:03:58;140042.47;;;-13.80;70.09
28354;BME280;15603;50.878;8.036;2024-01-10T04:06:25;140053.19;;;-13.76;70.08
28354;BME280;15603;50.878;8.036;2024-01-10T04:08:52;140053.19;;;-13.76;68.96
28354;BME280;15603;50.878;8.036;2024-01-10T04:11:19;140040.13;;;-13.81;70.18
28354;BME280;15603;50.878;8.036;2024-01-10T04:13:46;140046.06;;;-13.79;70.12
28354;BME280;15603;50.878;8.036;2024-01-10T04:16:13;140040.13;;;-13.81;70.45
28354;BME280;15603;50.878;8.036;2024-01-10T04:18:40;140068.69;;;-13.69;69.18
28354;BME280;15603;50.878;8.036;2024-01-10T04:21:08;140079.41;;;-13.65;68.34
28354;BME280;15603;50.878;8.036;2024-01-10T04:23:35;140062.75;;;-13.72;67.10
28354;BME280;15603;50.878;8.036;2024-01-10T04:26:03;140049.63;;;-13.77;68.78
28354;BME280;15603;50.878;8.036;2024-01-10T04:28:30;140055.59;;;-13.75;69.22
28354;BME280;15603;50.878;8.036;2024-01-10T04:30:57;140059.16;;;-13.73;69.48
28354;BME280;15603;50.878;8.036;2024-01-10T04:33:25;140029.34;;;-13.86;69.89
28354;BME280;15603;50.878;8.036;2024-01-10T04:35:52;140028.19;;;-13.87;70.25
28354;BME280;15603;50.878;8.036;2024-01-10T04:38:19;140060.34;;;-13.73;69.85
28354;BME280;15603;50.878;8.036;2024-01-10T04:40:47;140049.63;;;-13.77;71.32
28354;BME280;15603;50.878;8.036;2024-01-10T04:43:14;140063.94;;;-13.71;69.91
28354;BME280;15603;50.878;8.036;2024-01-10T04:45:41;140016.25;;;-13.92;71.14
28354;BME280;15603;50.878;8.036;2024-01-10T04:48:09;140036.53;;;-13.83;72.16
28354;BME280;15603;50.878;8.036;2024-01-10T04:50:36;140032.94;;;-13.85;70.58
28354;BME280;15603;50.878;8.036;2024-01-10T04:53:03;140029.34;;;-13.86;72.56
28354;BME280;15603;50.878;8.036;2024-01-10T04:55:30;140022.25;;;-13.89;72.30
28354;BME280;15603;50.878;8.036;2024-01-10T04:57:58;140024.59;;;-13.88;73.32
28354;BME280;15603;50.878;8.036;2024-01-10T05:00:27;140019.84;;;-13.90;72.76
28354;BME280;15603;50.878;8.036;2024-01-10T05:02:55;140003.16;;;-13.97;73.58
28354;BME280;15603;50.878;8.036;2024-01-10T05:05:22;139998.38;;;-13.99;73.88
28354;BME280;15603;50.878;8.036;2024-01-10T05:07:51;139993.63;;;-14.01;74.72
28354;BME280;15603;50.878;8.036;2024-01-10T05:10:19;139992.44;;;-14.02;75.44
28354;BME280;15603;50.878;8.036;2024-01-10T05:12:46;139999.56;;;-13.99;75.53
28354;BME280;15603;50.878;8.036;2024-01-10T05:15:13;139981.69;;;-14.07;75.94
28354;BME280;15603;50.878;8.036;2024-01-10T05:17:40;139996.03;;;-14.00;76.00
28354;BME280;15603;50.878;8.036;2024-01-10T05:20:08;139998.38;;;-13.99;76.11
28354;BME280;15603;50.878;8.036;2024-01-10T05:22:35;139967.41;;;-14.13;76.74
28354;BME280;15603;50.878;8.036;2024-01-10T05:25:03;139971.00;;;-14.11;76.91
28354;BME280;15603;50.878;8.036;2024-01-10T05:27:31;139934.06;;;-14.27;77.30
28354;BME280;15603;50.878;8.036;2024-01-10T05:29:58;139976.94;;;-14.09;77.44
28354;BME280;15603;50.878;8.036;2024-01-10T05:32:26;139980.50;;;-14.07;77.39
28354;BME280;15603;50.878;8.036;2024-01-10T05:34:54;139948.38;;;-14.21;78.46
28354;BME280;15603;50.878;8.036;2024-01-10T05:37:21;139967.41;;;-14.13;79.32
28354;BME280;15603;50.878;8.036;2024-01-10T05:39:49;139945.97;;;-14.22;79.48
28354;BME280;15603;50.878;8.036;2024-01-10T05:42:16;139962.66;;;-14.15;79.88
28354;BME280;15603;50.878;8.036;2024-01-10T05:44:43;139986.50;;;-14.05;78.72
28354;BME280;15603;50.878;8.036;2024-01-10T05:47:10;139954.31;;;-14.18;78.76
28354;BME280;15603;50.878;8.036;2024-01-10T05:49:38;139974.56;;;-14.10;78.78
28354;BME280;15603;50.878;8.036;2024-01-10T05:52:05;139900.72;;;-14.42;79.33
28354;BME280;15603;50.878;8.036;2024-01-10T05:54:32;140027.00;;;-13.87;76.59
28354;BME280;15603;50.878;8.036;2024-01-10T05:56:59;139934.06;;;-14.27;77.91
28354;BME280;15603;50.878;8.036;2024-01-10T05:59:28;139973.41;;;-14.10;77.75
28354;BME280;15603;50.878;8.036;2024-01-10T06:01:56;139960.28;;;-14.16;78.27
28354;BME280;15603;50.878;8.036;2024-01-10T06:04:26;139967.41;;;-14.13;79.33
28354;BME280;15603;50.878;8.036;2024-01-10T06:06:54;139957.88;;;-14.17;79.34
28354;BME280;15603;50.878;8.036;2024-01-10T06:09:22;139962.66;;;-14.15;79.59
28354;BME280;15603;50.878;8.036;2024-01-10T06:11:49;139968.63;;;-14.12;79.50
28354;BME280;15603;50.878;8.036;2024-01-10T06:14:16;139919.81;;;-14.33;79.55
28354;BME280;15603;50.878;8.036;2024-01-10T06:16:44;139972.16;;;-14.11;80.10
28354;BME280;15603;50.878;8.036;2024-01-10T06:19:12;139974.56;;;-14.10;80.58
28354;BME280;15603;50.878;8.036;2024-01-10T06:21:39;139976.94;;;-14.09;79.43
28354;BME280;15603;50.878;8.036;2024-01-10T06:24:06;139981.69;;;-14.07;80.17
28354;BME280;15603;50.878;8.036;2024-01-10T06:26:35;139973.41;;;-14.10;79.98
28354;BME280;15603;50.878;8.036;2024-01-10T06:29:02;139936.44;;;-14.26;79.91
28354;BME280;15603;50.878;8.036;2024-01-10T06:31:29;139936.44;;;-14.26;80.54
28354;BME280;15603;50.878;8.036;2024-01-10T06:33:56;139954.31;;;-14.18;80.11
28354;BME280;15603;50.878;8.036;2024-01-10T06:36:24;139957.88;;;-14.17;79.10
28354;BME280;15603;50.878;8.036;2024-01-10T06:38:51;139960.28;;;-14.16;78.94
28354;BME280;15603;50.878;8.036;2024-01-10T06:41:21;139957.88;;;-14.17;77.63
28354;BME280;15603;50.878;8.036;2024-01-10T06:43:51;139905.47;;;-14.39;78.23
28354;BME280;15603;50.878;8.036;2024-01-10T06:46:20;139978.16;;;-14.08;77.86
28354;BME280;15603;50.878;8.036;2024-01-10T06:48:47;139968.63;;;-14.12;78.04
28354;BME280;15603;50.878;8.036;2024-01-10T06:51:16;139969.81;;;-14.12;80.28
28354;BME280;15603;50.878;8.036;2024-01-10T06:53:43;139962.66;;;-14.15;80.67
28354;BME280;15603;50.878;8.036;2024-01-10T06:56:10;139948.38;;;-14.21;80.58
28354;BME280;15603;50.878;8.036;2024-01-10T06:58:38;139953.13;;;-14.19;81.01
28354;BME280;15603;50.878;8.036;2024-01-10T07:01:11;139934.06;;;-14.27;81.23
28354;BME280;15603;50.878;8.036;2024-01-10T07:03:40;139838.84;;;-14.68;82.05
28354;BME280;15603;50.878;8.036;2024-01-10T07:06:08;139924.56;;;-14.31;81.25
28354;BME280;15603;50.878;8.036;2024-01-10T07:08:35;139942.41;;;-14.24;81.62
28354;BME280;15603;50.878;8.036;2024-01-10T07:11:02;139929.31;;;-14.29;81.86
28354;BME280;15603;50.878;8.036;2024-01-10T07:13:29;139915.03;;;-14.35;81.60
28354;BME280;15603;50.878;8.036;2024-01-10T07:15:58;139904.28;;;-14.40;82.14
28354;BME280;15603;50.878;8.036;2024-01-10T07:18:29;139905.47;;;-14.39;82.07
28354;BME280;15603;50.878;8.036;2024-01-10T07:20:57;139899.53;;;-14.42;82.21
28354;BME280;15603;50.878;8.036;2024-01-10T07:23:24;139922.16;;;-14.32;81.83
28354;BME280;15603;50.878;8.036;2024-01-10T07:25:52;139831.72;;;-14.71;81.26
28354;BME280;15603;50.878;8.036;2024-01-10T07:28:19;139962.66;;;-14.15;80.50
28354;BME280;15603;50.878;8.036;2024-01-10T07:30:47;139981.69;;;-14.07;80.80
28354;BME280;15603;50.878;8.036;2024-01-10T07:33:15;139957.88;;;-14.17;82.04
28354;BME280;15603;50.878;8.036;2024-01-10T07:35:42;139638.94;;;-15.54;80.73
28354;BME280;15603;50.878;8.036;2024-01-10T07:38:10;139972.16;;;-14.11;79.90
28354;BME280;15603;50.878;8.036;2024-01-10T07:40:38;139960.28;;;-14.16;79.60
28354;BME280;15603;50.878;8.036;2024-01-10T07:43:05;139965.03;;;-14.14;81.33
28354;BME280;15603;50.878;8.036;2024-01-10T07:45:32;139968.63;;;-14.12;81.14
28354;BME280;15603;50.878;8.036;2024-01-10T07:48:00;139982.91;;;-14.06;80.23
28354;BME280;15603;50.878;8.036;2024-01-10T07:50:27;139984.09;;;-14.06;79.75
28354;BME280;15603;50.878;8.036;2024-01-10T07:52:55;139997.19;;;-14.00;80.34
28354;BME280;15603;50.878;8.036;2024-01-10T07:55:23;140007.91;;;-13.95;79.87
28354;BME280;15603;50.878;8.036;2024-01-10T07:57:50;140009.13;;;-13.95;78.32
28354;BME280;15603;50.878;8.036;2024-01-10T08:00:19;139985.28;;;-14.05;78.44
28354;BME280;15603;50.878;8.036;2024-01-10T08:02:47;139934.06;;;-14.27;80.21
28354;BME280;15603;50.878;8.036;2024-01-10T08:05:16;140029.34;;;-13.86;80.32
28354;BME280;15603;50.878;8.036;2024-01-10T08:07:44;140015.06;;;-13.92;79.02
28354;BME280;15603;50.878;8.036;2024-01-10T08:10:11;139972.16;;;-14.11;79.13
28354;BME280;15603;50.878;8.036;2024-01-10T08:12:38;139974.56;;;-14.10;80.83
28354;BME280;15603;50.878;8.036;2024-01-10T08:15:08;139941.19;;;-14.24;80.13
28354;BME280;15603;50.878;8.036;2024-01-10T08:17:37;139975.75;;;-14.09;79.88
28354;BME280;15603;50.878;8.036;2024-01-10T08:20:08;139982.91;;;-14.06;79.81
28354;BME280;15603;50.878;8.036;2024-01-10T08:22:38;139998.38;;;-13.99;81.27
28354;BME280;15603;50.878;8.036;2024-01-10T08:25:05;139931.69;;;-14.28;82.10
28354;BME280;15603;50.878;8.036;2024-01-10T08:27:33;139936.44;;;-14.26;81.32
28354;BME280;15603;50.878;8.036;2024-01-10T08:30:03;140031.75;;;-13.85;80.76
28354;BME280;15603;50.878;8.036;2024-01-10T08:32:32;140067.50;;;-13.70;81.15
28354;BME280;15603;50.878;8.036;2024-01-10T08:35:03;140074.63;;;-13.67;79.91
28354;BME280;15603;50.878;8.036;2024-01-10T08:37:32;140100.84;;;-13.55;80.30
28354;BME280;15603;50.878;8.036;2024-01-10T08:39:59;140128.25;;;-13.44;79.94
28354;BME280;15603;50.878;8.036;2024-01-10T08:42:28;140178.28;;;-13.22;79.15
28354;BME280;15603;50.878;8.036;2024-01-10T08:44:55;140209.28;;;-13.09;78.79
28354;BME280;15603;50.878;8.036;2024-01-10T08:47:23;140245.03;;;-12.93;78.44
28354;BME280;15603;50.878;8.036;2024-01-10T08:49:50;140284.41;;;-12.76;77.59
28354;BME280;15603;50.878;8.036;2024-01-10T08:52:18;140305.88;;;-12.67;76.66
28354;BME280;15603;50.878;8.036;2024-01-10T08:54:45;140310.66;;;-12.65;76.39
28354;BME280;15603;50.878;8.036;2024-01-10T08:57:12;140341.66;;;-12.52;76.32
28354;BME280;15603;50.878;8.036;2024-01-10T08:59:42;140367.91;;;-12.40;76.25
28354;BME280;15603;50.878;8.036;2024-01-10T09:02:10;140387.00;;;-12.32;75.25
28354;BME280;15603;50.878;8.036;2024-01-10T09:04:38;140410.84;;;-12.22;76.05
28354;BME280;15603;50.878;8.036;2024-01-10T09:07:07;140429.97;;;-12.14;75.08
28354;BME280;15603;50.878;8.036;2024-01-10T09:09:36;140468.13;;;-11.97;72.88
28354;BME280;15603;50.878;8.036;2024-01-10T09:12:03;140441.88;;;-12.09;71.36
28354;BME280;15603;50.878;8.036;2024-01-10T09:14:30;140457.41;;;-12.02;70.19
28354;BME280;15603;50.878;8.036;2024-01-10T09:16:57;140445.47;;;-12.07;68.73
28354;BME280;15603;50.878;8.036;2024-01-10T09:19:29;140443.09;;;-12.08;68.83
28354;BME280;15603;50.878;8.036;2024-01-10T09:21:57;140433.56;;;-12.12;69.04
28354;BME280;15603;50.878;8.036;2024-01-10T09:24:24;140457.41;;;-12.02;69.75
28354;BME280;15603;50.878;8.036;2024-01-10T09:26:56;140489.59;;;-11.88;68.40
28354;BME280;15603;50.878;8.036;2024-01-10T09:29:24;140511.09;;;-11.79;66.53
28354;BME280;15603;50.878;8.036;2024-01-10T09:31:55;140564.81;;;-11.56;66.86
28354;BME280;15603;50.878;8.036;2024-01-10T09:34:23;140567.16;;;-11.55;64.89
28354;BME280;15603;50.878;8.036;2024-01-10T09:36:50;140556.44;;;-11.59;64.36
28354;BME280;15603;50.878;8.036;2024-01-10T09:39:19;140570.75;;;-11.53;63.94
28354;BME280;15603;50.878;8.036;2024-01-10T09:41:47;140585.06;;;-11.47;63.56
28354;BME280;15603;50.878;8.036;2024-01-10T09:44:20;140606.59;;;-11.38;64.74
28354;BME280;15603;50.878;8.036;2024-01-10T09:46:52;140674.66;;;-11.09;64.30
28354;BME280;15603;50.878;8.036;2024-01-10T09:49:21;140735.59;;;-10.82;60.75
28354;BME280;15603;50.878;8.036;2024-01-10T09:51:49;140738.00;;;-10.81;61.09
28354;BME280;15603;50.878;8.036;2024-01-10T09:54:17;140752.31;;;-10.75;61.85
28354;BME280;15603;50.878;8.036;2024-01-10T09:56:47;140711.72;;;-10.93;61.14
28354;BME280;15603;50.878;8.036;2024-01-10T09:59:15;140704.53;;;-10.96;61.80
28354;BME280;15603;50.878;8.036;2024-01-10T10:01:43;140702.16;;;-10.97;61.44
28354;BME280;15603;50.878;8.036;2024-01-10T10:04:12;140685.41;;;-11.04;64.30
28354;BME280;15603;50.878;8.036;2024-01-10T10:06:39;140680.66;;;-11.06;64.55
28354;BME280;15603;50.878;8.036;2024-01-10T10:09:10;140687.78;;;-11.03;64.77
28354;BME280;15603;50.878;8.036;2024-01-10T10:11:37;140694.97;;;-11.00;62.88
28354;BME280;15603;50.878;8.036;2024-01-10T10:14:14;140773.84;;;-10.66;62.61
28354;BME280;15603;50.878;8.036;2024-01-10T10:16:43;140831.16;;;-10.41;59.58
28354;BME280;15603;50.878;8.036;2024-01-10T10:19:10;140881.31;;;-10.20;59.06
28354;BME280;15603;50.878;8.036;2024-01-10T10:21:47;140866.97;;;-10.26;57.74
28354;BME280;15603;50.878;8.036;2024-01-10T10:24:14;140846.72;;;-10.35;57.35
28354;BME280;15603;50.878;8.036;2024-01-10T10:26:45;140840.72;;;-10.37;58.59
28354;BME280;15603;50.878;8.036;2024-01-10T10:29:12;140869.41;;;-10.25;58.09
28354;BME280;15603;50.878;8.036;2024-01-10T10:31:47;140871.75;;;-10.24;59.92
28354;BME280;15603;50.878;8.036;2024-01-10T10:34:20;140881.31;;;-10.20;58.28
28354;BME280;15603;50.878;8.036;2024-01-10T10:36:48;140982.97;;;-9.76;57.70
28354;BME280;15603;50.878;8.036;2024-01-10T10:39:16;141005.69;;;-9.67;58.60
28354;BME280;15603;50.878;8.036;2024-01-10T10:41:47;141041.56;;;-9.51;55.92
28354;BME280;15603;50.878;8.036;2024-01-10T10:44:15;141109.75;;;-9.22;55.65
28354;BME280;15603;50.878;8.036;2024-01-10T10:46:52;141211.47;;;-8.78;53.44
28354;BME280;15603;50.878;8.036;2024-01-10T10:49:45;141300.03;;;-8.40;53.44
28354;BME280;15603;50.878;8.036;2024-01-10T10:52:15;141329.94;;;-8.27;52.94
28354;BME280;15603;50.878;8.036;2024-01-10T10:54:43;141380.28;;;-8.06;51.53
28354;BME280;15603;50.878;8.036;2024-01-10T10:57:11;141436.56;;;-7.82;51.28
28354;BME280;15603;50.878;8.036;2024-01-10T10:59:40;141482.06;;;-7.62;51.30
28354;BME280;15603;50.878;8.036;2024-01-10T11:02:09;141538.41;;;-7.38;50.83
28354;BME280;15603;50.878;8.036;2024-01-10T11:04:39;141540.78;;;-7.37;50.23
28354;BME280;15603;50.878;8.036;2024-01-10T11:07:07;141537.22;;;-7.39;50.13
28354;BME280;15603;50.878;8.036;2024-01-10T11:09:36;141510.84;;;-7.50;50.61
28354;BME280;15603;50.878;8.036;2024-01-10T11:12:29;141467.69;;;-7.68;50.83
28354;BME280;15603;50.878;8.036;2024-01-10T11:18:02;141467.69;;;-7.68;51.46
28354;BME280;15603;50.878;8.036;2024-01-10T11:25:58;141498.84;;;-7.55;50.41
28354;BME280;15603;50.878;8.036;2024-01-10T11:28:26;141532.44;;;-7.41;50.34
28354;BME280;15603;50.878;8.036;2024-01-10T11:30:56;141530.00;;;-7.42;50.09
28354;BME280;15603;50.878;8.036;2024-01-10T11:33:30;141494.06;;;-7.57;50.24
28354;BME280;15603;50.878;8.036;2024-01-10T11:36:15;141479.69;;;-7.63;50.60
28354;BME280;15603;50.878;8.036;2024-01-10T11:38:55;141440.16;;;-7.80;50.98
28354;BME280;15603;50.878;8.036;2024-01-10T11:41:32;141464.09;;;-7.70;50.46
28354;BME280;15603;50.878;8.036;2024-01-10T11:46:46;141474.91;;;-7.65;50.73
28354;BME280;15603;50.878;8.036;2024-01-10T11:49:15;141512.03;;;-7.50;50.66
28354;BME280;15603;50.878;8.036;2024-01-10T11:51:52;141568.38;;;-7.25;50.22
28354;BME280;15603;50.878;8.036;2024-01-10T11:57:13;141645.09;;;-6.93;49.69
28354;BME280;15603;50.878;8.036;2024-01-10T11:59:41;141714.63;;;-6.63;48.61
28354;BME280;15603;50.878;8.036;2024-01-10T12:02:09;141733.78;;;-6.55;48.33
28354;BME280;15603;50.878;8.036;2024-01-10T12:04:37;141769.78;;;-6.39;48.12
28354;BME280;15603;50.878;8.036;2024-01-10T12:07:15;141738.59;;;-6.53;47.96
28354;BME280;15603;50.878;8.036;2024-01-10T12:09:42;141743.38;;;-6.51;48.35
28354;BME280;15603;50.878;8.036;2024-01-10T12:12:10;141720.59;;;-6.60;47.74
28354;BME280;15603;50.878;8.036;2024-01-10T12:14:40;141729.00;;;-6.57;48.01
28354;BME280;15603;50.878;8.036;2024-01-10T12:17:07;141750.59;;;-6.47;48.06
28354;BME280;15603;50.878;8.036;2024-01-10T12:19:36;141750.59;;;-6.47;47.60
28354;BME280;15603;50.878;8.036;2024-01-10T12:22:06;141725.41;;;-6.58;47.98
28354;BME280;15603;50.878;8.036;2024-01-10T12:24:47;141633.09;;;-6.98;48.02
28354;BME280;15603;50.878;8.036;2024-01-10T12:27:18;141645.09;;;-6.93;47.87
28354;BME280;15603;50.878;8.036;2024-01-10T12:29:50;141700.25;;;-6.69;48.21
28354;BME280;15603;50.878;8.036;2024-01-10T12:32:20;141671.44;;;-6.81;48.20
28354;BME280;15603;50.878;8.036;2024-01-10T12:34:54;141671.44;;;-6.81;48.34
28354;BME280;15603;50.878;8.036;2024-01-10T12:37:24;141690.66;;;-6.73;48.54
28354;BME280;15603;50.878;8.036;2024-01-10T12:39:51;141673.84;;;-6.80;48.54
28354;BME280;15603;50.878;8.036;2024-01-10T12:42:20;141688.22;;;-6.74;48.28
28354;BME280;15603;50.878;8.036;2024-01-10T12:44:47;141730.25;;;-6.56;48.58
28354;BME280;15603;50.878;8.036;2024-01-10T12:47:21;141774.56;;;-6.37;48.63
28354;BME280;15603;50.878;8.036;2024-01-10T12:49:51;141792.56;;;-6.29;48.49
28354;BME280;15603;50.878;8.036;2024-01-10T12:52:18;141767.41;;;-6.40;48.15
28354;BME280;15603;50.878;8.036;2024-01-10T12:54:51;141764.97;;;-6.41;48.76
28354;BME280;15603;50.878;8.036;2024-01-10T12:57:18;141789.00;;;-6.31;48.47
28354;BME280;15603;50.878;8.036;2024-01-10T12:59:45;141738.59;;;-6.53;48.75
28354;BME280;15603;50.878;8.036;2024-01-10T13:02:12;141730.25;;;-6.56;48.36